createdAt,value
2022-10-27T00:02:02.964Z,3.10
2022-10-27T00:04:29.676Z,3.57
2022-10-27T00:06:56.369Z,3.27
2022-10-27T00:09:22.988Z,3.10
2022-10-27T00:11:49.632Z,3.13
2022-10-27T00:14:16.283Z,3.13
2022-10-27T00:16:43.136Z,3.03
2022-10-27T00:19:09.768Z,2.70
2022-10-27T00:21:36.377Z,3.10
2022-10-27T00:24:03.027Z,2.83
2022-10-27T00:26:29.652Z,3.23
2022-10-27T00:28:56.351Z,3.20
2022-10-27T00:31:22.957Z,3.47
2022-10-27T00:33:51.084Z,3.40
2022-10-27T00:36:23.093Z,3.87
2022-10-27T00:38:52.873Z,3.23
2022-10-27T00:41:30.229Z,3.47
2022-10-27T00:43:58.708Z,4.30
2022-10-27T00:46:39.617Z,4.43
2022-10-27T00:49:09.913Z,3.50
2022-10-27T00:51:43.301Z,3.03
2022-10-27T00:54:11.802Z,3.53
2022-10-27T00:56:39.382Z,3.67
2022-10-27T00:59:06.079Z,3.53
2022-10-27T01:01:33.166Z,3.77
2022-10-27T01:04:00.036Z,4.07
2022-10-27T01:06:27.426Z,3.67
2022-10-27T01:08:54.589Z,4.17
2022-10-27T01:11:21.199Z,3.33
2022-10-27T01:13:47.912Z,3.40
2022-10-27T01:16:20.426Z,3.50
2022-10-27T01:18:53.113Z,3.60
2022-10-27T01:21:25.631Z,3.50
2022-10-27T01:24:20.514Z,3.27
2022-10-27T01:26:58.436Z,3.93
2022-10-27T01:29:40.220Z,3.60
2022-10-27T01:32:26.727Z,3.40
2022-10-27T01:35:02.386Z,3.40
2022-10-27T01:37:41.825Z,3.73
2022-10-27T01:40:20.951Z,4.10
2022-10-27T01:42:54.789Z,3.37
2022-10-27T01:45:27.254Z,3.27
2022-10-27T01:47:56.110Z,3.23
2022-10-27T01:50:45.007Z,3.30
2022-10-27T01:53:19.997Z,3.43
2022-10-27T01:55:49.614Z,3.90
2022-10-27T01:58:46.895Z,3.40
2022-10-27T02:01:51.356Z,3.90
2022-10-27T02:04:25.720Z,3.27
2022-10-27T02:07:10.760Z,3.50
2022-10-27T02:10:00.059Z,2.93
2022-10-27T02:12:30.908Z,3.63
2022-10-27T02:15:00.751Z,3.13
2022-10-27T02:17:34.953Z,3.07
2022-10-27T02:20:04.064Z,3.50
2022-10-27T02:22:32.793Z,3.70
2022-10-27T02:25:00.070Z,3.20
2022-10-27T02:27:50.000Z,3.40
2022-10-27T02:30:16.848Z,4.23
2022-10-27T02:32:44.758Z,4.43
2022-10-27T02:35:12.627Z,3.77
2022-10-27T02:37:41.779Z,4.40
2022-10-27T02:40:09.710Z,4.50
2022-10-27T02:42:36.420Z,4.20
2022-10-27T02:45:03.475Z,4.50
2022-10-27T02:47:30.151Z,3.77
2022-10-27T02:49:56.821Z,4.40
2022-10-27T02:52:23.525Z,4.33
2022-10-27T02:54:50.210Z,4.23
2022-10-27T02:57:20.240Z,4.57
2022-10-27T02:59:49.658Z,3.90
2022-10-27T03:02:20.166Z,4.30
2022-10-27T03:04:46.942Z,4.20
2022-10-27T03:07:13.632Z,4.00
2022-10-27T03:09:40.328Z,3.73
2022-10-27T03:12:07.192Z,4.20
2022-10-27T03:14:33.840Z,4.43
2022-10-27T03:17:00.435Z,4.10
2022-10-27T03:19:27.174Z,4.17
2022-10-27T03:21:53.828Z,3.90
2022-10-27T03:24:20.474Z,4.23
2022-10-27T03:26:47.342Z,3.70
2022-10-27T03:29:14.022Z,3.50
2022-10-27T03:31:41.016Z,3.80
2022-10-27T03:34:07.766Z,3.83
2022-10-27T03:36:34.495Z,3.47
2022-10-27T03:39:01.644Z,3.50
2022-10-27T03:41:28.323Z,3.20
2022-10-27T03:43:54.986Z,3.07
2022-10-27T03:46:21.651Z,3.23
2022-10-27T03:48:48.292Z,3.67
2022-10-27T03:51:15.061Z,3.40
2022-10-27T03:53:41.731Z,2.90
2022-10-27T03:56:10.120Z,3.50
2022-10-27T03:58:36.786Z,3.20
2022-10-27T04:01:05.682Z,3.10
2022-10-27T04:03:33.255Z,3.50
2022-10-27T04:05:59.998Z,3.60
2022-10-27T04:08:27.247Z,3.17
2022-10-27T04:10:54.218Z,3.90
2022-10-27T04:13:20.989Z,2.90
2022-10-27T04:15:47.885Z,3.20
2022-10-27T04:18:14.675Z,3.10
2022-10-27T04:20:41.465Z,3.37
2022-10-27T04:23:08.261Z,3.10
2022-10-27T04:25:35.128Z,3.37
2022-10-27T04:28:06.883Z,3.30
2022-10-27T04:30:34.220Z,2.97
2022-10-27T04:33:00.948Z,3.07
2022-10-27T04:35:28.049Z,2.83
2022-10-27T04:37:56.497Z,3.20
2022-10-27T04:40:23.389Z,3.50
2022-10-27T04:42:50.039Z,3.43
2022-10-27T04:45:17.092Z,3.23
2022-10-27T04:47:45.051Z,2.90
2022-10-27T04:50:13.487Z,2.93
2022-10-27T04:52:43.520Z,3.53
2022-10-27T04:55:11.581Z,3.13
2022-10-27T04:57:38.234Z,4.60
2022-10-27T05:00:05.677Z,4.43
2022-10-27T05:02:34.822Z,3.40
2022-10-27T05:05:04.952Z,3.20
2022-10-27T05:07:31.599Z,3.83
2022-10-27T05:09:58.297Z,3.10
2022-10-27T05:12:25.030Z,3.27
2022-10-27T05:14:51.689Z,3.60
2022-10-27T05:17:19.563Z,2.83
2022-10-27T05:19:46.813Z,3.10
2022-10-27T05:22:13.482Z,3.90
2022-10-27T05:24:40.157Z,3.50
2022-10-27T05:27:06.799Z,3.50
2022-10-27T05:29:33.709Z,3.10
2022-10-27T05:32:00.422Z,3.23
2022-10-27T05:34:27.044Z,3.20
2022-10-27T05:36:53.701Z,3.10
2022-10-27T05:39:20.365Z,3.03
2022-10-27T05:41:47.031Z,3.20
2022-10-27T05:44:13.687Z,2.90
2022-10-27T05:46:40.367Z,2.70
2022-10-27T05:49:07.011Z,3.13
2022-10-27T05:51:33.711Z,2.87
2022-10-27T05:54:00.382Z,3.37
2022-10-27T05:56:27.432Z,3.43
2022-10-27T05:58:54.171Z,3.60
2022-10-27T06:01:21.335Z,3.10
2022-10-27T06:03:48.067Z,6.67
2022-10-27T06:06:14.679Z,7.53
2022-10-27T06:08:41.319Z,5.13
2022-10-27T06:11:07.953Z,5.80
2022-10-27T06:13:34.682Z,4.57
2022-10-27T06:16:01.303Z,4.93
2022-10-27T06:18:27.965Z,4.83
2022-10-27T06:20:54.685Z,5.17
2022-10-27T06:23:21.360Z,5.00
2022-10-27T06:25:48.071Z,4.73
2022-10-27T06:28:15.042Z,4.30
2022-10-27T06:30:43.333Z,4.00
2022-10-27T06:33:10.019Z,4.03
2022-10-27T06:35:36.650Z,3.47
2022-10-27T06:38:03.214Z,3.53
2022-10-27T06:40:29.892Z,3.30
2022-10-27T06:43:12.016Z,3.30
2022-10-27T06:45:40.173Z,3.60
2022-10-27T06:48:09.931Z,3.43
2022-10-27T06:50:36.598Z,3.50
2022-10-27T06:53:03.514Z,3.13
2022-10-27T06:55:31.412Z,3.07
2022-10-27T06:57:58.313Z,3.00
2022-10-27T07:00:25.383Z,3.20
2022-10-27T07:02:52.141Z,3.07
2022-10-27T07:05:18.936Z,3.00
2022-10-27T07:07:47.365Z,3.40
2022-10-27T07:10:14.485Z,3.47
2022-10-27T07:12:51.988Z,2.90
2022-10-27T07:15:19.068Z,2.90
2022-10-27T07:17:45.765Z,2.83
2022-10-27T07:20:12.543Z,2.60
2022-10-27T07:22:41.988Z,2.83
2022-10-27T07:25:08.906Z,2.57
2022-10-27T07:27:35.704Z,2.33
2022-10-27T07:30:02.417Z,2.60
2022-10-27T07:32:29.164Z,2.40
2022-10-27T07:34:55.817Z,2.37
2022-10-27T07:37:22.473Z,2.30
2022-10-27T07:39:49.703Z,2.23
2022-10-27T07:42:17.636Z,1.93
2022-10-27T07:44:44.454Z,2.30
2022-10-27T07:47:11.637Z,2.10
2022-10-27T07:49:38.340Z,2.37
2022-10-27T07:52:05.130Z,2.50
2022-10-27T07:54:31.732Z,2.40
2022-10-27T07:56:58.414Z,2.37
2022-10-27T07:59:25.093Z,2.30
2022-10-27T08:01:51.851Z,2.00
2022-10-27T08:04:18.541Z,2.40
2022-10-27T08:06:45.185Z,2.50
2022-10-27T08:09:15.223Z,2.30
2022-10-27T08:11:45.286Z,2.23
2022-10-27T08:14:12.628Z,2.40
2022-10-27T08:16:39.409Z,2.53
2022-10-27T08:19:06.093Z,2.57
2022-10-27T08:21:32.734Z,2.17
2022-10-27T08:23:59.428Z,2.40
2022-10-27T08:26:26.160Z,2.30
2022-10-27T08:28:52.867Z,2.57
2022-10-27T08:31:19.977Z,2.10
2022-10-27T08:33:46.673Z,2.57
2022-10-27T08:36:13.818Z,2.40
2022-10-27T08:38:40.463Z,2.23
2022-10-27T08:41:36.060Z,2.13
2022-10-27T08:44:18.235Z,1.87
2022-10-27T08:46:52.198Z,2.17
2022-10-27T08:49:36.693Z,2.30
2022-10-27T08:52:11.846Z,1.80
2022-10-27T08:54:40.860Z,2.47
2022-10-27T08:57:12.886Z,2.30
2022-10-27T08:59:41.516Z,2.33
2022-10-27T09:02:31.097Z,2.10
2022-10-27T09:05:08.018Z,2.20
2022-10-27T09:08:01.013Z,2.42
2022-10-27T09:10:45.986Z,2.63
2022-10-27T09:13:51.633Z,2.15
2022-10-27T09:16:34.076Z,3.70
2022-10-27T09:19:05.541Z,3.15
2022-10-27T09:21:36.939Z,2.80
2022-10-27T09:24:11.653Z,2.47
2022-10-27T09:26:40.928Z,2.33
2022-10-27T09:29:20.113Z,2.20
2022-10-27T09:31:55.450Z,2.13
2022-10-27T09:34:28.182Z,2.30
2022-10-27T09:36:55.468Z,1.90
2022-10-27T09:39:22.375Z,2.10
2022-10-27T09:41:49.881Z,2.00
2022-10-27T09:44:22.856Z,2.30
2022-10-27T09:46:54.633Z,2.38
2022-10-27T09:49:27.749Z,2.22
2022-10-27T09:52:03.597Z,2.30
2022-10-27T09:54:31.646Z,1.90
2022-10-27T09:57:11.413Z,2.20
2022-10-27T09:59:40.283Z,2.17
2022-10-27T10:02:24.544Z,2.10
2022-10-27T10:04:51.408Z,1.70
2022-10-27T10:07:46.847Z,1.60
2022-10-27T10:10:25.738Z,2.08
2022-10-27T10:13:02.374Z,1.92
2022-10-27T10:15:30.659Z,1.85
2022-10-27T10:18:00.756Z,1.98
2022-10-27T10:20:30.571Z,2.22
2022-10-27T10:22:57.981Z,2.78
2022-10-27T10:25:28.155Z,2.10
2022-10-27T10:28:01.043Z,1.70
2022-10-27T10:30:27.990Z,2.30
2022-10-27T10:32:57.304Z,2.20
2022-10-27T10:35:40.661Z,1.98
2022-10-27T10:38:27.566Z,1.90
2022-10-27T10:41:12.350Z,1.88
2022-10-27T10:43:40.464Z,2.10
2022-10-27T10:46:21.989Z,1.80
2022-10-27T10:48:59.075Z,1.80
2022-10-27T10:51:28.464Z,1.90
2022-10-27T10:54:06.336Z,2.08
2022-10-27T10:56:35.852Z,2.15
2022-10-27T10:59:06.451Z,2.00
2022-10-27T11:01:48.501Z,2.28
2022-10-27T11:04:21.602Z,1.95
2022-10-27T11:07:03.024Z,2.20
2022-10-27T11:09:44.333Z,2.45
2022-10-27T11:12:21.225Z,2.15
2022-10-27T11:14:53.830Z,2.10
2022-10-27T11:17:24.795Z,2.00
2022-10-27T11:19:56.887Z,2.20
2022-10-27T11:22:25.870Z,2.38
2022-10-27T11:25:14.312Z,2.50
2022-10-27T11:27:57.085Z,2.90
2022-10-27T11:30:25.856Z,2.30
2022-10-27T11:33:37.770Z,2.30
2022-10-27T11:36:11.462Z,2.45
2022-10-27T11:38:45.115Z,2.53
2022-10-27T11:41:34.790Z,2.53
2022-10-27T11:44:38.672Z,2.60
2022-10-27T11:47:12.826Z,2.60
2022-10-27T11:49:49.263Z,2.53
2022-10-27T11:52:30.095Z,2.90
2022-10-27T11:54:57.894Z,2.90
2022-10-27T11:57:45.891Z,3.00
2022-10-27T12:00:22.479Z,2.65
2022-10-27T12:03:46.779Z,3.03
2022-10-27T12:06:30.005Z,2.90
2022-10-27T12:09:20.615Z,3.10
2022-10-27T12:11:57.787Z,3.47
2022-10-27T12:14:45.129Z,2.58
2022-10-27T12:17:22.522Z,3.00
2022-10-27T12:19:50.800Z,3.03
2022-10-27T12:22:27.443Z,2.90
2022-10-27T12:25:00.357Z,2.90
2022-10-27T12:27:32.371Z,2.70
2022-10-27T12:30:10.734Z,3.00
2022-10-27T12:32:43.185Z,2.78
2022-10-27T12:35:32.767Z,3.25
2022-10-27T12:38:07.877Z,3.10
2022-10-27T12:40:48.810Z,2.97
2022-10-27T12:43:20.561Z,3.65
2022-10-27T12:46:24.550Z,2.78
2022-10-27T12:49:09.506Z,3.00
2022-10-27T12:52:08.990Z,3.15
2022-10-27T12:55:07.029Z,2.70
2022-10-27T12:57:44.508Z,2.85
2022-10-27T13:00:16.197Z,2.70
2022-10-27T13:02:55.476Z,3.20
2022-10-27T13:05:47.660Z,2.92
2022-10-27T13:08:33.212Z,3.10
2022-10-27T13:11:05.874Z,2.92
2022-10-27T13:13:42.777Z,3.10
2022-10-27T13:16:09.418Z,3.40
2022-10-27T13:18:49.942Z,3.22
2022-10-27T13:21:47.809Z,2.78
2022-10-27T13:24:44.899Z,2.72
2022-10-27T13:27:14.555Z,3.00
2022-10-27T13:30:08.386Z,3.00
2022-10-27T13:32:52.821Z,2.97
2022-10-27T13:35:19.487Z,2.70
2022-10-27T13:38:09.757Z,2.80
2022-10-27T13:40:38.155Z,2.57
2022-10-27T13:43:24.690Z,2.65
2022-10-27T13:45:55.865Z,2.83
2022-10-27T13:48:22.435Z,3.00
2022-10-27T13:50:50.394Z,2.63
2022-10-27T13:53:20.288Z,2.78
2022-10-27T13:55:47.056Z,3.13
2022-10-27T13:58:19.951Z,3.05
2022-10-27T14:00:49.551Z,2.92
2022-10-27T14:03:57.734Z,2.70
2022-10-27T14:06:45.600Z,2.77
2022-10-27T14:09:45.203Z,2.43
2022-10-27T14:12:18.335Z,2.70
2022-10-27T14:14:51.329Z,3.00
2022-10-27T14:17:29.136Z,2.17
2022-10-27T14:20:03.232Z,3.00
2022-10-27T14:22:42.762Z,2.90
2022-10-27T14:25:21.666Z,2.63
2022-10-27T14:27:49.813Z,2.73
2022-10-27T14:30:22.511Z,2.67
2022-10-27T14:32:49.268Z,2.97
2022-10-27T14:35:21.126Z,2.90
2022-10-27T14:37:48.096Z,2.83
2022-10-27T14:40:22.122Z,2.50
2022-10-27T14:42:50.744Z,2.80
2022-10-27T14:45:21.201Z,2.73
2022-10-27T14:48:04.005Z,2.80
2022-10-27T14:50:40.562Z,2.53
2022-10-27T14:53:23.494Z,3.03
2022-10-27T14:56:40.495Z,3.10
2022-10-27T14:59:21.329Z,2.97
2022-10-27T15:01:48.987Z,2.77
2022-10-27T15:04:27.052Z,3.47
2022-10-27T15:07:02.519Z,2.60
2022-10-27T15:09:38.065Z,3.00
2022-10-27T15:12:24.874Z,3.30
2022-10-27T15:14:53.964Z,2.83
2022-10-27T15:17:31.324Z,3.33
2022-10-27T15:20:00.000Z,3.30
2022-10-27T15:22:28.098Z,2.93
2022-10-27T15:24:55.641Z,3.00
2022-10-27T15:27:22.955Z,3.63
2022-10-27T15:29:51.768Z,5.50
2022-10-27T15:32:27.406Z,5.40
2022-10-27T15:34:54.114Z,4.93
2022-10-27T15:37:20.705Z,3.70
2022-10-27T15:39:47.438Z,4.10
2022-10-27T15:42:19.617Z,3.80
2022-10-27T15:44:48.034Z,3.63
2022-10-27T15:47:41.349Z,3.43
2022-10-27T15:50:29.885Z,3.50
2022-10-27T15:53:15.434Z,4.00
2022-10-27T15:55:45.835Z,3.70
2022-10-27T15:58:39.220Z,3.00
2022-10-27T16:01:29.408Z,3.40
2022-10-27T16:03:58.462Z,3.43
2022-10-27T16:06:29.663Z,3.00
2022-10-27T16:08:58.663Z,3.23
2022-10-27T16:11:30.601Z,3.00
2022-10-27T16:13:59.581Z,3.67
2022-10-27T16:16:26.644Z,3.40
2022-10-27T16:18:55.393Z,2.97
2022-10-27T16:21:29.373Z,3.63
2022-10-27T16:24:12.283Z,3.70
2022-10-27T16:26:39.241Z,4.00
2022-10-27T16:29:06.105Z,3.73
2022-10-27T16:31:32.929Z,3.80
2022-10-27T16:33:59.653Z,3.53
2022-10-27T16:36:26.536Z,4.10
2022-10-27T16:38:53.171Z,4.37
2022-10-27T16:41:26.683Z,4.00
2022-10-27T16:43:53.594Z,3.87
2022-10-27T16:46:20.372Z,3.90
2022-10-27T16:48:47.196Z,3.67
2022-10-27T16:51:16.109Z,3.70
2022-10-27T16:53:43.707Z,3.87
2022-10-27T16:56:12.697Z,3.90
2022-10-27T16:58:41.848Z,3.47
2022-10-27T17:01:21.178Z,3.50
2022-10-27T17:03:48.518Z,3.30
2022-10-27T17:06:17.956Z,3.37
2022-10-27T17:08:44.665Z,3.60
2022-10-27T17:11:13.846Z,3.57
2022-10-27T17:13:40.855Z,3.33
2022-10-27T17:16:12.690Z,3.50
2022-10-27T17:18:39.283Z,3.67
2022-10-27T17:21:06.170Z,3.70
2022-10-27T17:23:32.868Z,3.77
2022-10-27T17:26:05.102Z,3.40
2022-10-27T17:28:32.255Z,3.60
2022-10-27T17:31:00.718Z,3.67
2022-10-27T17:33:27.940Z,3.83
2022-10-27T17:35:59.472Z,3.90
2022-10-27T17:38:26.594Z,3.57
2022-10-27T17:40:54.687Z,4.10
2022-10-27T17:43:22.549Z,3.73
2022-10-27T17:46:04.263Z,3.63
2022-10-27T17:48:35.860Z,3.90
2022-10-27T17:51:09.535Z,3.47
2022-10-27T17:53:37.755Z,3.63
2022-10-27T17:56:07.386Z,3.30
2022-10-27T17:58:37.552Z,3.20
2022-10-27T18:01:08.177Z,3.30
2022-10-27T18:03:38.165Z,3.43
2022-10-27T18:06:07.682Z,3.87
2022-10-27T18:08:34.609Z,3.70
2022-10-27T18:11:03.457Z,3.73
2022-10-27T18:13:34.859Z,3.70
2022-10-27T18:16:02.578Z,3.83
2022-10-27T18:18:29.304Z,6.23
2022-10-27T18:20:56.007Z,5.80
2022-10-27T18:23:22.663Z,6.70
2022-10-27T18:25:49.309Z,6.57
2022-10-27T18:28:15.983Z,6.43
2022-10-27T18:30:42.724Z,5.67
2022-10-27T18:33:09.369Z,4.73
2022-10-27T18:35:36.372Z,4.40
2022-10-27T18:38:03.040Z,4.30
2022-10-27T18:40:29.645Z,4.47
2022-10-27T18:42:58.824Z,4.10
2022-10-27T18:45:28.007Z,4.87
2022-10-27T18:47:54.673Z,4.43
2022-10-27T18:50:21.414Z,3.73
2022-10-27T18:52:48.147Z,3.97
2022-10-27T18:55:14.959Z,4.20
2022-10-27T18:57:41.574Z,4.40
2022-10-27T19:00:09.035Z,4.00
2022-10-27T19:02:35.861Z,4.60
2022-10-27T19:05:02.733Z,4.07
2022-10-27T19:07:29.969Z,4.40
2022-10-27T19:09:56.612Z,4.20
2022-10-27T19:12:23.457Z,4.60
2022-10-27T19:14:50.093Z,4.10
2022-10-27T19:17:16.746Z,3.60
2022-10-27T19:19:43.419Z,3.73
2022-10-27T19:22:10.074Z,4.00
2022-10-27T19:24:36.802Z,4.43
2022-10-27T19:27:03.581Z,4.63
2022-10-27T19:29:30.570Z,4.77
2022-10-27T19:31:57.186Z,4.50
2022-10-27T19:34:23.942Z,4.00
2022-10-27T19:36:50.676Z,5.20
2022-10-27T19:39:17.433Z,5.50
2022-10-27T19:41:44.104Z,5.83
2022-10-27T19:44:12.279Z,5.17
2022-10-27T19:46:39.173Z,5.30
2022-10-27T19:49:07.680Z,5.13
2022-10-27T19:51:37.569Z,4.50
2022-10-27T19:54:05.176Z,4.93
2022-10-27T19:56:33.090Z,5.60
2022-10-27T19:59:02.982Z,5.40
2022-10-27T20:01:36.504Z,5.00
2022-10-27T20:04:05.730Z,4.73
2022-10-27T20:06:32.867Z,5.07
2022-10-27T20:08:59.948Z,4.37
2022-10-27T20:11:29.522Z,4.30
2022-10-27T20:13:57.129Z,4.63
2022-10-27T20:16:27.180Z,5.13
2022-10-27T20:18:53.966Z,4.70
2022-10-27T20:21:20.698Z,4.20
2022-10-27T20:23:47.634Z,4.57
2022-10-27T20:26:31.125Z,6.07
2022-10-27T20:28:58.957Z,5.33
2022-10-27T20:31:26.188Z,4.57
2022-10-27T20:33:52.988Z,4.47
2022-10-27T20:36:19.790Z,4.97
2022-10-27T20:38:46.741Z,4.60
2022-10-27T20:41:15.751Z,5.23
2022-10-27T20:43:42.556Z,6.27
2022-10-27T20:46:10.285Z,6.20
2022-10-27T20:48:37.892Z,6.63
2022-10-27T20:51:11.709Z,6.93
2022-10-27T20:53:39.368Z,6.47
2022-10-27T20:56:06.989Z,5.70
2022-10-27T20:58:33.679Z,5.43
2022-10-27T21:01:24.747Z,5.83
2022-10-27T21:03:52.908Z,5.60
2022-10-27T21:06:19.675Z,4.93
2022-10-27T21:08:46.423Z,4.97
2022-10-27T21:11:13.068Z,5.13
2022-10-27T21:13:39.729Z,4.83
2022-10-27T21:16:06.494Z,4.63
2022-10-27T21:18:33.137Z,4.30
2022-10-27T21:20:59.796Z,5.20
2022-10-27T21:23:26.427Z,6.03
2022-10-27T21:25:53.054Z,5.27
2022-10-27T21:28:19.702Z,5.17
2022-10-27T21:30:46.302Z,5.23
2022-10-27T21:33:12.956Z,4.80
2022-10-27T21:35:39.684Z,4.90
2022-10-27T21:38:06.444Z,5.70
2022-10-27T21:40:33.938Z,7.10
2022-10-27T21:43:00.686Z,8.33
2022-10-27T21:45:27.294Z,9.57
2022-10-27T21:47:54.297Z,8.83
2022-10-27T21:50:21.362Z,7.60
2022-10-27T21:52:48.024Z,6.60
2022-10-27T21:55:14.799Z,5.67
2022-10-27T21:57:43.036Z,6.10
2022-10-27T22:00:12.290Z,6.00
2022-10-27T22:02:38.920Z,6.40
2022-10-27T22:05:05.709Z,4.70
2022-10-27T22:07:32.316Z,5.10
2022-10-27T22:09:58.985Z,4.50
2022-10-27T22:12:25.676Z,5.37
2022-10-27T22:14:52.373Z,4.53
2022-10-27T22:17:19.016Z,4.23
2022-10-27T22:19:46.283Z,4.17
2022-10-27T22:22:12.923Z,4.30
2022-10-27T22:24:39.531Z,4.20
2022-10-27T22:27:06.176Z,4.00
2022-10-27T22:29:32.840Z,4.30
2022-10-27T22:31:59.465Z,4.17
2022-10-27T22:34:26.117Z,4.37
2022-10-27T22:36:52.777Z,3.77
2022-10-27T22:39:19.405Z,5.20
2022-10-27T22:41:46.118Z,4.33
2022-10-27T22:44:12.770Z,4.43
2022-10-27T22:46:39.425Z,4.50
2022-10-27T22:49:06.083Z,4.23
2022-10-27T22:51:32.749Z,4.27
2022-10-27T22:53:59.512Z,4.63
2022-10-27T22:56:29.370Z,4.57
2022-10-27T22:59:00.873Z,5.03
2022-10-27T23:01:33.328Z,4.83
2022-10-27T23:04:02.789Z,4.67
2022-10-27T23:06:31.648Z,4.53
2022-10-27T23:09:01.811Z,4.63
2022-10-27T23:11:34.291Z,4.50
2022-10-27T23:14:02.293Z,4.67
2022-10-27T23:16:30.453Z,4.83
2022-10-27T23:18:58.604Z,3.80
2022-10-27T23:21:26.048Z,4.40
2022-10-27T23:23:54.117Z,4.00
2022-10-27T23:26:40.576Z,3.77
2022-10-27T23:29:10.585Z,4.00
2022-10-27T23:31:37.373Z,4.40
2022-10-27T23:34:05.546Z,3.90
2022-10-27T23:36:34.313Z,4.00
2022-10-27T23:39:01.418Z,3.73
2022-10-27T23:41:28.212Z,3.83
2022-10-27T23:43:56.709Z,3.37
2022-10-27T23:46:25.025Z,3.53
2022-10-27T23:48:52.741Z,3.30
2022-10-27T23:53:47.783Z,3.10
2022-10-27T23:56:14.493Z,3.17
2022-10-27T23:58:42.999Z,3.13
